sensor_id;sensor_type;location;lat;lon;timestamp;pressure;altitude;pressure_sealevel;temperature;humidity
69127;BME280;56688;50.234;19.292;2023-04-29T00:01:19;98293.05;;;5.76;65.83
69127;BME280;56688;50.234;19.292;2023-04-29T00:03:46;98291.05;;;5.81;65.90
69127;BME280;56688;50.234;19.292;2023-04-29T00:06:13;98292.14;;;5.88;66.10
69127;BME280;56688;50.234;19.292;2023-04-29T00:08:41;98292.98;;;5.95;66.33
69127;BME280;56688;50.234;19.292;2023-04-29T00:11:08;98294.35;;;6.02;66.20
69127;BME280;56688;50.234;19.292;2023-04-29T00:13:37;98296.41;;;6.07;66.28
69127;BME280;56688;50.234;19.292;2023-04-29T00:16:07;98294.18;;;6.11;65.91
69127;BME280;56688;50.234;19.292;2023-04-29T00:18:36;98295.23;;;6.15;66.32
69127;BME280;56688;50.234;19.292;2023-04-29T00:21:03;98297.37;;;6.18;66.34
69127;BME280;56688;50.234;19.292;2023-04-29T00:23:32;98293.54;;;6.21;66.53
69127;BME280;56688;50.234;19.292;2023-04-29T00:25:59;98290.23;;;6.22;66.52
69127;BME280;56688;50.234;19.292;2023-04-29T00:28:26;98287.86;;;6.25;66.52
69127;BME280;56688;50.234;19.292;2023-04-29T00:30:53;98287.40;;;6.29;67.09
69127;BME280;56688;50.234;19.292;2023-04-29T00:33:22;98292.17;;;6.35;67.57
69127;BME280;56688;50.234;19.292;2023-04-29T00:35:49;98286.46;;;6.42;67.46
69127;BME280;56688;50.234;19.292;2023-04-29T00:38:16;98286.79;;;6.49;67.48
69127;BME280;56688;50.234;19.292;2023-04-29T00:40:43;98284.63;;;6.56;67.36
69127;BME280;56688;50.234;19.292;2023-04-29T00:43:11;98283.23;;;6.62;67.41
69127;BME280;56688;50.234;19.292;2023-04-29T00:45:38;98283.04;;;6.67;67.16
69127;BME280;56688;50.234;19.292;2023-04-29T00:48:06;98279.90;;;6.68;67.44
69127;BME280;56688;50.234;19.292;2023-04-29T00:50:33;98281.65;;;6.72;67.64
69127;BME280;56688;50.234;19.292;2023-04-29T00:53:00;98279.17;;;6.73;67.70
69127;BME280;56688;50.234;19.292;2023-04-29T00:55:27;98270.39;;;6.73;67.77
69127;BME280;56688;50.234;19.292;2023-04-29T00:57:56;98273.80;;;6.74;67.54
69127;BME280;56688;50.234;19.292;2023-04-29T01:00:23;98269.59;;;6.73;67.64
69127;BME280;56688;50.234;19.292;2023-04-29T01:02:55;98272.94;;;6.73;67.54
69127;BME280;56688;50.234;19.292;2023-04-29T01:05:23;98262.56;;;6.75;67.71
69127;BME280;56688;50.234;19.292;2023-04-29T01:08:03;98266.39;;;6.81;67.97
69127;BME280;56688;50.234;19.292;2023-04-29T01:13:29;98268.77;;;6.95;67.03
69127;BME280;56688;50.234;19.292;2023-04-29T01:16:01;98269.02;;;7.01;65.82
69127;BME280;56688;50.234;19.292;2023-04-29T01:18:48;98272.59;;;7.05;65.59
69127;BME280;56688;50.234;19.292;2023-04-29T01:21:19;98272.61;;;7.10;65.04
69127;BME280;56688;50.234;19.292;2023-04-29T01:23:46;98271.13;;;7.12;64.02
69127;BME280;56688;50.234;19.292;2023-04-29T01:26:13;98274.92;;;7.13;63.43
69127;BME280;56688;50.234;19.292;2023-04-29T01:29:16;98275.67;;;7.12;62.86
69127;BME280;56688;50.234;19.292;2023-04-29T01:31:57;98280.90;;;7.12;62.69
69127;BME280;56688;50.234;19.292;2023-04-29T01:34:27;98275.13;;;7.09;62.66
69127;BME280;56688;50.234;19.292;2023-04-29T01:39:56;98275.90;;;7.09;62.24
69127;BME280;56688;50.234;19.292;2023-04-29T01:44:59;98276.85;;;7.07;62.56
69127;BME280;56688;50.234;19.292;2023-04-29T01:47:30;98269.37;;;7.05;62.65
69127;BME280;56688;50.234;19.292;2023-04-29T01:49:58;98267.45;;;7.05;62.57
69127;BME280;56688;50.234;19.292;2023-04-29T01:52:25;98269.37;;;7.04;62.87
69127;BME280;56688;50.234;19.292;2023-04-29T01:54:55;98263.15;;;7.04;63.14
69127;BME280;56688;50.234;19.292;2023-04-29T01:57:25;98261.51;;;7.06;63.44
69127;BME280;56688;50.234;19.292;2023-04-29T01:59:59;98263.94;;;7.11;63.86
69127;BME280;56688;50.234;19.292;2023-04-29T02:02:43;98260.05;;;7.17;64.01
69127;BME280;56688;50.234;19.292;2023-04-29T02:05:17;98260.14;;;7.23;63.70
69127;BME280;56688;50.234;19.292;2023-04-29T02:07:51;98262.08;;;7.28;64.43
69127;BME280;56688;50.234;19.292;2023-04-29T02:10:18;98263.05;;;7.32;64.00
69127;BME280;56688;50.234;19.292;2023-04-29T02:12:45;98262.20;;;7.34;64.47
69127;BME280;56688;50.234;19.292;2023-04-29T02:15:13;98257.36;;;7.37;65.14
69127;BME280;56688;50.234;19.292;2023-04-29T02:17:40;98256.20;;;7.37;65.64
69127;BME280;56688;50.234;19.292;2023-04-29T02:20:07;98249.41;;;7.38;66.26
69127;BME280;56688;50.234;19.292;2023-04-29T02:22:35;98245.05;;;7.39;66.72
69127;BME280;56688;50.234;19.292;2023-04-29T02:25:02;98246.27;;;7.39;66.72
69127;BME280;56688;50.234;19.292;2023-04-29T02:27:30;98239.36;;;7.36;67.17
69127;BME280;56688;50.234;19.292;2023-04-29T02:29:57;98242.73;;;7.38;67.80
69127;BME280;56688;50.234;19.292;2023-04-29T02:32:24;98241.14;;;7.39;68.04
69127;BME280;56688;50.234;19.292;2023-04-29T02:34:51;98236.91;;;7.43;67.84
69127;BME280;56688;50.234;19.292;2023-04-29T02:37:18;98240.20;;;7.48;67.22
69127;BME280;56688;50.234;19.292;2023-04-29T02:39:45;98235.63;;;7.53;66.61
69127;BME280;56688;50.234;19.292;2023-04-29T02:42:12;98238.86;;;7.57;67.08
69127;BME280;56688;50.234;19.292;2023-04-29T02:44:39;98233.34;;;7.59;66.59
69127;BME280;56688;50.234;19.292;2023-04-29T02:47:08;98233.65;;;7.62;66.43
69127;BME280;56688;50.234;19.292;2023-04-29T02:49:35;98233.87;;;7.64;66.01
69127;BME280;56688;50.234;19.292;2023-04-29T02:52:02;98229.54;;;7.64;65.98
69127;BME280;56688;50.234;19.292;2023-04-29T02:54:29;98233.68;;;7.65;65.67
69127;BME280;56688;50.234;19.292;2023-04-29T02:56:56;98236.85;;;7.64;66.42
69127;BME280;56688;50.234;19.292;2023-04-29T02:59:22;98234.13;;;7.62;66.61
69127;BME280;56688;50.234;19.292;2023-04-29T03:01:49;98232.98;;;7.59;66.89
69127;BME280;56688;50.234;19.292;2023-04-29T03:04:16;98231.61;;;7.57;67.35
69127;BME280;56688;50.234;19.292;2023-04-29T03:06:43;98223.23;;;7.58;67.09
69127;BME280;56688;50.234;19.292;2023-04-29T03:09:10;98221.59;;;7.57;67.19
69127;BME280;56688;50.234;19.292;2023-04-29T03:11:38;98220.37;;;7.61;67.30
69127;BME280;56688;50.234;19.292;2023-04-29T03:14:05;98218.46;;;7.65;66.92
69127;BME280;56688;50.234;19.292;2023-04-29T03:16:32;98212.86;;;7.69;67.18
69127;BME280;56688;50.234;19.292;2023-04-29T03:19:00;98214.59;;;7.72;67.11
69127;BME280;56688;50.234;19.292;2023-04-29T03:21:27;98213.91;;;7.77;67.21
69127;BME280;56688;50.234;19.292;2023-04-29T03:23:55;98215.06;;;7.80;67.20
69127;BME280;56688;50.234;19.292;2023-04-29T03:26:27;98209.02;;;7.82;67.11
69127;BME280;56688;50.234;19.292;2023-04-29T03:28:54;98206.21;;;7.84;67.14
69127;BME280;56688;50.234;19.292;2023-04-29T03:31:20;98209.33;;;7.84;66.94
69127;BME280;56688;50.234;19.292;2023-04-29T03:33:49;98208.88;;;7.84;67.20
69127;BME280;56688;50.234;19.292;2023-04-29T03:36:16;98207.24;;;7.87;67.37
69127;BME280;56688;50.234;19.292;2023-04-29T03:38:58;98205.65;;;7.92;67.15
69127;BME280;56688;50.234;19.292;2023-04-29T03:41:25;98209.42;;;7.98;67.00
69127;BME280;56688;50.234;19.292;2023-04-29T03:43:52;98209.88;;;8.05;66.79
69127;BME280;56688;50.234;19.292;2023-04-29T03:46:20;98213.69;;;8.12;66.64
69127;BME280;56688;50.234;19.292;2023-04-29T03:48:47;98211.65;;;8.17;66.46
69127;BME280;56688;50.234;19.292;2023-04-29T03:51:14;98215.59;;;8.20;66.17
69127;BME280;56688;50.234;19.292;2023-04-29T03:53:41;98216.34;;;8.29;66.28
69127;BME280;56688;50.234;19.292;2023-04-29T03:56:09;98215.89;;;8.34;66.11
69127;BME280;56688;50.234;19.292;2023-04-29T03:58:36;98214.35;;;8.39;66.09
69127;BME280;56688;50.234;19.292;2023-04-29T04:01:03;98215.11;;;8.41;66.33
69127;BME280;56688;50.234;19.292;2023-04-29T04:03:35;98217.05;;;8.44;65.73
69127;BME280;56688;50.234;19.292;2023-04-29T04:06:02;98217.59;;;8.47;65.35
69127;BME280;56688;50.234;19.292;2023-04-29T04:08:29;98215.85;;;8.51;64.69
69127;BME280;56688;50.234;19.292;2023-04-29T04:11:12;98218.18;;;8.57;64.13
69127;BME280;56688;50.234;19.292;2023-04-29T04:13:44;98222.21;;;8.63;64.36
69127;BME280;56688;50.234;19.292;2023-04-29T04:16:11;98221.89;;;8.66;64.24
69127;BME280;56688;50.234;19.292;2023-04-29T04:18:38;98220.32;;;8.66;64.29
69127;BME280;56688;50.234;19.292;2023-04-29T04:21:08;98218.98;;;8.68;64.93
69127;BME280;56688;50.234;19.292;2023-04-29T04:23:37;98218.98;;;8.72;65.34
69127;BME280;56688;50.234;19.292;2023-04-29T04:26:07;98214.56;;;8.78;65.91
69127;BME280;56688;50.234;19.292;2023-04-29T04:28:49;98211.08;;;8.87;65.61
69127;BME280;56688;50.234;19.292;2023-04-29T04:31:24;98210.98;;;8.95;65.41
69127;BME280;56688;50.234;19.292;2023-04-29T04:33:51;98208.70;;;9.03;65.42
69127;BME280;56688;50.234;19.292;2023-04-29T04:36:18;98208.53;;;9.14;65.19
69127;BME280;56688;50.234;19.292;2023-04-29T04:38:46;98209.04;;;9.23;64.94
69127;BME280;56688;50.234;19.292;2023-04-29T04:41:13;98207.13;;;9.28;64.94
69127;BME280;56688;50.234;19.292;2023-04-29T04:43:42;98205.58;;;9.33;64.81
69127;BME280;56688;50.234;19.292;2023-04-29T04:46:17;98202.02;;;9.29;65.13
69127;BME280;56688;50.234;19.292;2023-04-29T04:48:57;98203.48;;;9.36;64.82
69127;BME280;56688;50.234;19.292;2023-04-29T04:51:26;98206.53;;;9.41;63.98
69127;BME280;56688;50.234;19.292;2023-04-29T04:53:54;98205.41;;;9.43;64.29
69127;BME280;56688;50.234;19.292;2023-04-29T04:56:22;98205.61;;;9.46;64.34
69127;BME280;56688;50.234;19.292;2023-04-29T04:58:49;98206.40;;;9.46;64.12
69127;BME280;56688;50.234;19.292;2023-04-29T05:01:16;98207.11;;;9.48;64.37
69127;BME280;56688;50.234;19.292;2023-04-29T05:03:43;98207.10;;;9.51;64.77
69127;BME280;56688;50.234;19.292;2023-04-29T05:06:10;98202.03;;;9.52;65.19
69127;BME280;56688;50.234;19.292;2023-04-29T05:08:39;98204.85;;;9.55;65.58
69127;BME280;56688;50.234;19.292;2023-04-29T05:11:14;98206.91;;;9.60;65.89
69127;BME280;56688;50.234;19.292;2023-04-29T05:13:42;98202.64;;;9.67;65.84
69127;BME280;56688;50.234;19.292;2023-04-29T05:16:09;98203.80;;;9.73;65.80
69127;BME280;56688;50.234;19.292;2023-04-29T05:18:38;98203.08;;;9.79;65.63
69127;BME280;56688;50.234;19.292;2023-04-29T05:21:05;98208.83;;;9.83;66.01
69127;BME280;56688;50.234;19.292;2023-04-29T05:23:32;98202.26;;;9.90;66.29
69127;BME280;56688;50.234;19.292;2023-04-29T05:25:59;98201.20;;;9.93;66.41
69127;BME280;56688;50.234;19.292;2023-04-29T05:28:26;98200.96;;;9.97;66.61
69127;BME280;56688;50.234;19.292;2023-04-29T05:30:54;98199.77;;;9.94;66.78
69127;BME280;56688;50.234;19.292;2023-04-29T05:33:21;98207.34;;;9.96;67.24
69127;BME280;56688;50.234;19.292;2023-04-29T05:35:48;98203.98;;;9.99;67.58
69127;BME280;56688;50.234;19.292;2023-04-29T05:38:16;98208.64;;;10.03;67.67
69127;BME280;56688;50.234;19.292;2023-04-29T05:40:49;98208.37;;;10.10;68.06
69127;BME280;56688;50.234;19.292;2023-04-29T05:43:31;98212.41;;;10.16;68.25
69127;BME280;56688;50.234;19.292;2023-04-29T05:45:59;98213.16;;;10.21;68.48
69127;BME280;56688;50.234;19.292;2023-04-29T05:48:26;98214.70;;;10.26;68.36
69127;BME280;56688;50.234;19.292;2023-04-29T05:50:54;98217.95;;;10.31;68.38
69127;BME280;56688;50.234;19.292;2023-04-29T05:53:21;98218.56;;;10.36;68.54
69127;BME280;56688;50.234;19.292;2023-04-29T05:55:48;98219.73;;;10.41;68.86
69127;BME280;56688;50.234;19.292;2023-04-29T05:58:18;98220.12;;;10.45;69.16
69127;BME280;56688;50.234;19.292;2023-04-29T06:00:45;98224.30;;;10.50;69.33
69127;BME280;56688;50.234;19.292;2023-04-29T06:03:18;98229.70;;;10.58;69.26
69127;BME280;56688;50.234;19.292;2023-04-29T06:05:47;98228.26;;;10.64;69.17
69127;BME280;56688;50.234;19.292;2023-04-29T06:08:31;98223.63;;;10.72;68.78
69127;BME280;56688;50.234;19.292;2023-04-29T06:11:13;98222.81;;;10.79;68.44
69127;BME280;56688;50.234;19.292;2023-04-29T06:13:40;98222.11;;;10.86;67.96
69127;BME280;56688;50.234;19.292;2023-04-29T06:16:07;98221.83;;;10.93;67.83
69127;BME280;56688;50.234;19.292;2023-04-29T06:18:34;98216.14;;;10.97;67.32
69127;BME280;56688;50.234;19.292;2023-04-29T06:21:01;98214.70;;;11.01;67.14
69127;BME280;56688;50.234;19.292;2023-04-29T06:23:28;98212.29;;;11.03;67.40
69127;BME280;56688;50.234;19.292;2023-04-29T06:25:55;98212.94;;;11.08;67.36
69127;BME280;56688;50.234;19.292;2023-04-29T06:28:21;98214.09;;;11.10;67.37
69127;BME280;56688;50.234;19.292;2023-04-29T06:30:49;98218.59;;;11.12;67.44
69127;BME280;56688;50.234;19.292;2023-04-29T06:33:16;98218.64;;;11.15;67.57
69127;BME280;56688;50.234;19.292;2023-04-29T06:35:43;98217.34;;;11.18;67.32
69127;BME280;56688;50.234;19.292;2023-04-29T06:38:29;98218.80;;;11.23;68.16
69127;BME280;56688;50.234;19.292;2023-04-29T06:41:10;98219.57;;;11.28;67.70
69127;BME280;56688;50.234;19.292;2023-04-29T06:43:52;98218.91;;;11.30;68.15
69127;BME280;56688;50.234;19.292;2023-04-29T06:46:34;98218.65;;;11.35;68.47
69127;BME280;56688;50.234;19.292;2023-04-29T06:49:06;98216.15;;;11.39;68.61
69127;BME280;56688;50.234;19.292;2023-04-29T06:51:33;98224.25;;;11.37;68.34
69127;BME280;56688;50.234;19.292;2023-04-29T06:54:01;98222.00;;;11.35;68.89
69127;BME280;56688;50.234;19.292;2023-04-29T06:56:28;98220.68;;;11.39;68.84
69127;BME280;56688;50.234;19.292;2023-04-29T06:58:55;98217.48;;;11.44;68.69
69127;BME280;56688;50.234;19.292;2023-04-29T07:01:22;98218.84;;;11.53;68.65
69127;BME280;56688;50.234;19.292;2023-04-29T07:03:49;98216.80;;;11.60;68.29
69127;BME280;56688;50.234;19.292;2023-04-29T07:06:18;98214.47;;;11.67;67.78
69127;BME280;56688;50.234;19.292;2023-04-29T07:08:44;98215.63;;;11.72;67.10
69127;BME280;56688;50.234;19.292;2023-04-29T07:11:14;98214.94;;;11.76;67.30
69127;BME280;56688;50.234;19.292;2023-04-29T07:13:41;98216.55;;;11.77;66.89
69127;BME280;56688;50.234;19.292;2023-04-29T07:16:16;98217.25;;;11.74;67.05
69127;BME280;56688;50.234;19.292;2023-04-29T07:18:44;98214.04;;;11.75;67.10
69127;BME280;56688;50.234;19.292;2023-04-29T07:21:11;98218.07;;;11.74;67.46
69127;BME280;56688;50.234;19.292;2023-04-29T07:23:38;98215.23;;;11.73;67.34
69127;BME280;56688;50.234;19.292;2023-04-29T07:26:10;98216.39;;;11.74;67.25
69127;BME280;56688;50.234;19.292;2023-04-29T07:28:37;98224.91;;;11.76;66.83
69127;BME280;56688;50.234;19.292;2023-04-29T07:31:05;98222.31;;;11.75;66.86
69127;BME280;56688;50.234;19.292;2023-04-29T07:33:34;98224.98;;;11.78;66.89
69127;BME280;56688;50.234;19.292;2023-04-29T07:36:02;98227.96;;;11.80;67.27
69127;BME280;56688;50.234;19.292;2023-04-29T07:38:30;98231.48;;;11.81;67.08
69127;BME280;56688;50.234;19.292;2023-04-29T07:40:57;98230.80;;;11.83;67.01
69127;BME280;56688;50.234;19.292;2023-04-29T07:43:24;98232.45;;;11.85;66.95
69127;BME280;56688;50.234;19.292;2023-04-29T07:45:50;98233.98;;;11.88;67.19
69127;BME280;56688;50.234;19.292;2023-04-29T07:48:17;98232.02;;;11.93;67.26
69127;BME280;56688;50.234;19.292;2023-04-29T07:50:44;98231.65;;;12.00;67.55
69127;BME280;56688;50.234;19.292;2023-04-29T07:53:11;98227.34;;;12.08;67.73
69127;BME280;56688;50.234;19.292;2023-04-29T07:55:38;98226.31;;;12.16;67.71
69127;BME280;56688;50.234;19.292;2023-04-29T07:58:05;98227.90;;;12.30;68.52
69127;BME280;56688;50.234;19.292;2023-04-29T08:00:32;98229.86;;;12.42;67.35
69127;BME280;56688;50.234;19.292;2023-04-29T08:02:59;98233.20;;;12.47;67.34
69127;BME280;56688;50.234;19.292;2023-04-29T08:05:27;98238.61;;;12.51;67.84
69127;BME280;56688;50.234;19.292;2023-04-29T08:07:56;98240.53;;;12.55;67.90
69127;BME280;56688;50.234;19.292;2023-04-29T08:10:24;98239.42;;;12.63;67.95
69127;BME280;56688;50.234;19.292;2023-04-29T08:12:52;98244.85;;;12.73;67.81
69127;BME280;56688;50.234;19.292;2023-04-29T08:15:21;98244.92;;;12.83;67.12
69127;BME280;56688;50.234;19.292;2023-04-29T08:17:47;98239.38;;;12.91;66.60
69127;BME280;56688;50.234;19.292;2023-04-29T08:20:14;98237.75;;;12.99;67.02
69127;BME280;56688;50.234;19.292;2023-04-29T08:22:41;98236.83;;;13.09;67.08
69127;BME280;56688;50.234;19.292;2023-04-29T08:25:09;98238.45;;;13.20;66.55
69127;BME280;56688;50.234;19.292;2023-04-29T08:27:36;98236.38;;;13.29;65.93
69127;BME280;56688;50.234;19.292;2023-04-29T08:30:03;98235.69;;;13.36;66.00
69127;BME280;56688;50.234;19.292;2023-04-29T08:32:30;98239.84;;;13.44;65.92
69127;BME280;56688;50.234;19.292;2023-04-29T08:34:58;98240.81;;;13.46;65.36
69127;BME280;56688;50.234;19.292;2023-04-29T08:37:25;98238.85;;;13.48;64.85
69127;BME280;56688;50.234;19.292;2023-04-29T08:39:52;98234.39;;;13.52;64.36
69127;BME280;56688;50.234;19.292;2023-04-29T08:42:31;98231.43;;;13.57;64.57
69127;BME280;56688;50.234;19.292;2023-04-29T08:44:58;98226.94;;;13.61;64.14
69127;BME280;56688;50.234;19.292;2023-04-29T08:47:29;98228.03;;;13.67;64.25
69127;BME280;56688;50.234;19.292;2023-04-29T08:50:01;98224.98;;;13.76;64.11
69127;BME280;56688;50.234;19.292;2023-04-29T08:52:31;98223.27;;;13.82;63.57
69127;BME280;56688;50.234;19.292;2023-04-29T08:54:59;98219.36;;;13.89;63.53
69127;BME280;56688;50.234;19.292;2023-04-29T08:57:29;98216.77;;;14.00;63.64
69127;BME280;56688;50.234;19.292;2023-04-29T08:59:58;98213.89;;;14.10;63.46
69127;BME280;56688;50.234;19.292;2023-04-29T09:02:26;98209.59;;;14.20;63.34
69127;BME280;56688;50.234;19.292;2023-04-29T09:05:04;98208.65;;;14.35;63.34
69127;BME280;56688;50.234;19.292;2023-04-29T09:07:32;98211.38;;;14.62;62.98
69127;BME280;56688;50.234;19.292;2023-04-29T09:10:00;98211.02;;;15.06;62.35
69127;BME280;56688;50.234;19.292;2023-04-29T09:12:29;98216.02;;;15.55;62.23
69127;BME280;56688;50.234;19.292;2023-04-29T09:14:56;98213.96;;;15.89;59.48
69127;BME280;56688;50.234;19.292;2023-04-29T09:17:43;98218.46;;;15.96;58.37
69127;BME280;56688;50.234;19.292;2023-04-29T09:20:26;98216.71;;;16.05;57.56
69127;BME280;56688;50.234;19.292;2023-04-29T09:25:22;98211.15;;;16.70;55.60
69127;BME280;56688;50.234;19.292;2023-04-29T09:27:49;98208.14;;;17.06;55.17
69127;BME280;56688;50.234;19.292;2023-04-29T09:30:16;98205.40;;;17.25;53.64
69127;BME280;56688;50.234;19.292;2023-04-29T09:32:45;98204.41;;;17.34;54.15
69127;BME280;56688;50.234;19.292;2023-04-29T09:37:48;98200.43;;;17.90;52.34
69127;BME280;56688;50.234;19.292;2023-04-29T09:40:27;98202.14;;;18.04;52.19
69127;BME280;56688;50.234;19.292;2023-04-29T09:42:56;98201.87;;;18.33;51.99
69127;BME280;56688;50.234;19.292;2023-04-29T09:45:40;98201.02;;;18.67;50.49
69127;BME280;56688;50.234;19.292;2023-04-29T09:48:09;98196.08;;;18.88;48.78
69127;BME280;56688;50.234;19.292;2023-04-29T09:50:37;98194.37;;;19.12;48.38
69127;BME280;56688;50.234;19.292;2023-04-29T09:53:05;98190.02;;;19.40;48.06
69127;BME280;56688;50.234;19.292;2023-04-29T09:55:35;98193.18;;;19.64;46.85
69127;BME280;56688;50.234;19.292;2023-04-29T09:58:02;98192.56;;;19.72;46.45
69127;BME280;56688;50.234;19.292;2023-04-29T10:00:31;98189.86;;;19.83;45.96
69127;BME280;56688;50.234;19.292;2023-04-29T10:03:00;98188.83;;;19.98;45.78
69127;BME280;56688;50.234;19.292;2023-04-29T10:05:28;98189.59;;;20.15;45.50
69127;BME280;56688;50.234;19.292;2023-04-29T10:07:57;98183.02;;;20.21;44.71
69127;BME280;56688;50.234;19.292;2023-04-29T10:10:26;98188.46;;;20.24;44.86
69127;BME280;56688;50.234;19.292;2023-04-29T10:12:57;98187.30;;;20.22;44.84
69127;BME280;56688;50.234;19.292;2023-04-29T10:15:31;98186.16;;;20.32;44.81
69127;BME280;56688;50.234;19.292;2023-04-29T10:18:19;98188.05;;;20.16;43.24
69127;BME280;56688;50.234;19.292;2023-04-29T10:20:47;98186.91;;;19.90;44.67
69127;BME280;56688;50.234;19.292;2023-04-29T10:23:14;98191.48;;;19.88;45.31
69127;BME280;56688;50.234;19.292;2023-04-29T10:25:43;98189.94;;;19.80;45.99
69127;BME280;56688;50.234;19.292;2023-04-29T10:28:12;98190.38;;;19.57;45.49
69127;BME280;56688;50.234;19.292;2023-04-29T10:30:43;98196.01;;;19.22;46.02
69127;BME280;56688;50.234;19.292;2023-04-29T10:33:11;98195.55;;;18.88;46.63
69127;BME280;56688;50.234;19.292;2023-04-29T10:35:38;98197.55;;;18.57;47.83
69127;BME280;56688;50.234;19.292;2023-04-29T10:38:12;98194.73;;;18.26;48.28
69127;BME280;56688;50.234;19.292;2023-04-29T10:40:44;98189.21;;;17.98;49.21
69127;BME280;56688;50.234;19.292;2023-04-29T10:43:14;98185.08;;;17.75;49.95
69127;BME280;56688;50.234;19.292;2023-04-29T10:45:41;98180.94;;;17.58;49.95
69127;BME280;56688;50.234;19.292;2023-04-29T10:48:12;98186.27;;;17.43;50.91
69127;BME280;56688;50.234;19.292;2023-04-29T10:51:00;98185.08;;;17.27;50.89
69127;BME280;56688;50.234;19.292;2023-04-29T10:53:28;98180.61;;;17.10;51.24
69127;BME280;56688;50.234;19.292;2023-04-29T10:55:58;98180.39;;;16.94;51.77
69127;BME280;56688;50.234;19.292;2023-04-29T11:01:07;98178.80;;;16.76;52.40
69127;BME280;56688;50.234;19.292;2023-04-29T11:03:45;98178.12;;;16.74;53.23
69127;BME280;56688;50.234;19.292;2023-04-29T11:06:14;98174.27;;;16.73;52.84
69127;BME280;56688;50.234;19.292;2023-04-29T11:08:41;98177.16;;;16.72;53.46
69127;BME280;56688;50.234;19.292;2023-04-29T11:11:09;98176.56;;;16.68;52.54
69127;BME280;56688;50.234;19.292;2023-04-29T11:13:38;98177.07;;;16.60;53.44
69127;BME280;56688;50.234;19.292;2023-04-29T11:16:07;98174.73;;;16.59;53.81
69127;BME280;56688;50.234;19.292;2023-04-29T11:18:35;98173.61;;;16.57;54.18
69127;BME280;56688;50.234;19.292;2023-04-29T11:23:34;98171.14;;;16.53;54.16
69127;BME280;56688;50.234;19.292;2023-04-29T11:26:02;98173.69;;;16.35;53.57
69127;BME280;56688;50.234;19.292;2023-04-29T11:28:30;98176.51;;;16.23;54.97
69127;BME280;56688;50.234;19.292;2023-04-29T11:30:58;98174.47;;;16.18;54.77
69127;BME280;56688;50.234;19.292;2023-04-29T11:33:26;98175.96;;;16.23;54.79
69127;BME280;56688;50.234;19.292;2023-04-29T11:35:54;98173.08;;;16.24;55.29
69127;BME280;56688;50.234;19.292;2023-04-29T11:38:25;98171.27;;;16.23;55.31
69127;BME280;56688;50.234;19.292;2023-04-29T11:40:53;98175.59;;;16.25;55.19
69127;BME280;56688;50.234;19.292;2023-04-29T11:43:22;98168.45;;;16.26;54.82
69127;BME280;56688;50.234;19.292;2023-04-29T11:45:50;98170.39;;;16.31;54.49
69127;BME280;56688;50.234;19.292;2023-04-29T11:48:21;98167.83;;;16.36;53.74
69127;BME280;56688;50.234;19.292;2023-04-29T11:50:50;98165.39;;;16.40;53.53
69127;BME280;56688;50.234;19.292;2023-04-29T11:53:19;98168.35;;;16.42;53.76
69127;BME280;56688;50.234;19.292;2023-04-29T11:55:47;98169.91;;;16.40;53.59
69127;BME280;56688;50.234;19.292;2023-04-29T11:58:14;98170.34;;;16.37;53.47
69127;BME280;56688;50.234;19.292;2023-04-29T12:00:42;98173.25;;;16.31;53.38
69127;BME280;56688;50.234;19.292;2023-04-29T12:03:14;98170.61;;;16.28;53.64
69127;BME280;56688;50.234;19.292;2023-04-29T12:05:46;98170.69;;;16.34;54.90
69127;BME280;56688;50.234;19.292;2023-04-29T12:08:14;98166.73;;;16.44;53.83
69127;BME280;56688;50.234;19.292;2023-04-29T12:10:40;98165.10;;;16.54;52.91
69127;BME280;56688;50.234;19.292;2023-04-29T12:13:07;98166.61;;;16.62;53.16
69127;BME280;56688;50.234;19.292;2023-04-29T12:15:36;98166.39;;;16.74;52.69
69127;BME280;56688;50.234;19.292;2023-04-29T12:18:05;98164.13;;;16.90;52.96
69127;BME280;56688;50.234;19.292;2023-04-29T12:20:33;98167.98;;;17.10;52.12
69127;BME280;56688;50.234;19.292;2023-04-29T12:23:17;98169.55;;;17.22;51.60
69127;BME280;56688;50.234;19.292;2023-04-29T12:25:49;98163.34;;;17.36;50.75
69127;BME280;56688;50.234;19.292;2023-04-29T12:28:16;98166.10;;;17.45;51.42
69127;BME280;56688;50.234;19.292;2023-04-29T12:30:45;98167.91;;;17.68;50.75
69127;BME280;56688;50.234;19.292;2023-04-29T12:33:21;98163.08;;;18.06;50.77
69127;BME280;56688;50.234;19.292;2023-04-29T12:35:49;98162.47;;;18.45;50.14
69127;BME280;56688;50.234;19.292;2023-04-29T12:38:26;98159.28;;;18.59;49.21
69127;BME280;56688;50.234;19.292;2023-04-29T12:40:54;98163.44;;;18.55;50.33
69127;BME280;56688;50.234;19.292;2023-04-29T12:43:30;98169.05;;;18.41;50.73
69127;BME280;56688;50.234;19.292;2023-04-29T12:46:06;98169.45;;;18.23;50.89
69127;BME280;56688;50.234;19.292;2023-04-29T12:48:35;98171.86;;;18.16;51.89
69127;BME280;56688;50.234;19.292;2023-04-29T12:51:04;98166.67;;;18.19;50.59
69127;BME280;56688;50.234;19.292;2023-04-29T12:53:31;98170.20;;;18.23;52.29
69127;BME280;56688;50.234;19.292;2023-04-29T12:55:58;98167.70;;;18.33;51.34
69127;BME280;56688;50.234;19.292;2023-04-29T12:58:28;98165.18;;;18.39;51.40
69127;BME280;56688;50.234;19.292;2023-04-29T13:00:56;98163.52;;;18.36;53.05
69127;BME280;56688;50.234;19.292;2023-04-29T13:03:24;98162.16;;;18.29;53.25
69127;BME280;56688;50.234;19.292;2023-04-29T13:05:53;98161.55;;;18.31;54.00
69127;BME280;56688;50.234;19.292;2023-04-29T13:08:20;98156.39;;;18.25;53.36
69127;BME280;56688;50.234;19.292;2023-04-29T13:10:48;98154.66;;;18.30;53.52
69127;BME280;56688;50.234;19.292;2023-04-29T13:13:15;98157.84;;;18.29;52.39
69127;BME280;56688;50.234;19.292;2023-04-29T13:15:42;98149.05;;;18.24;52.18
69127;BME280;56688;50.234;19.292;2023-04-29T13:18:09;98148.86;;;18.29;52.58
69127;BME280;56688;50.234;19.292;2023-04-29T13:20:36;98144.91;;;18.44;52.05
69127;BME280;56688;50.234;19.292;2023-04-29T13:23:08;98143.88;;;18.82;51.71
69127;BME280;56688;50.234;19.292;2023-04-29T13:25:35;98136.33;;;19.23;50.05